Time;durP1;ratioP1;P1;durP2;ratioP2;P2;SDS_P1;SDS_P2;PMS_P1;PMS_P2;Temp;Humidity;BMP_temperature;BMP_pressure;BME280_temperature;BME280_humidity;BME280_pressure;Samples;Min_cycle;Max_cycle;Signal;HPM_P1;HPM_P2
2022/06/25 00:01:49;;;;;;;63.20;39.05;;;17.70;99.90;;;;;;5092693;28;20040;-62
2022/06/25 00:06:59;;;;;;;65.30;42.70;;;17.30;99.90;;;;;;5092696;28;20051;-62
2022/06/25 00:09:25;;;;;;;69.55;46.10;;;17.60;99.90;;;;;;5092652;28;20048;-61
2022/06/25 00:14:36;;;;;;;72.60;45.38;;;17.60;99.90;;;;;;5092616;28;20067;-62
2022/06/25 00:17:02;;;;;;;62.63;42.58;;;17.40;99.90;;;;;;5092411;28;20040;-62
2022/06/25 00:19:28;;;;;;;67.40;44.30;;;17.50;99.90;;;;;;5092164;28;20052;-61
2022/06/25 00:21:54;;;;;;;52.25;40.03;;;17.20;99.90;;;;;;5092418;28;20499;-62
2022/06/25 00:24:20;;;;;;;59.35;42.13;;;17.10;99.90;;;;;;5091974;28;20036;-62
2022/06/25 00:26:45;;;;;;;62.88;44.63;;;17.60;99.90;;;;;;5091697;28;20447;-63
2022/06/25 00:29:11;;;;;;;66.32;46.15;;;17.20;99.90;;;;;;5092011;28;20131;-61
2022/06/25 00:31:37;;;;;;;61.00;43.92;;;17.40;99.90;;;;;;5091727;28;20044;-62
2022/06/25 00:34:03;;;;;;;59.55;41.17;;;17.10;99.90;;;;;;5092073;28;20054;-63
2022/06/25 00:36:29;;;;;;;65.35;45.55;;;17.40;99.90;;;;;;5091623;28;20048;-62
2022/06/25 00:38:55;;;;;;;61.65;44.30;;;17.20;99.90;;;;;;5090908;28;20466;-63
2022/06/25 00:41:21;;;;;;;76.88;47.78;;;17.30;99.90;;;;;;5091219;28;20124;-61
2022/06/25 00:43:47;;;;;;;68.03;44.58;;;17.40;99.90;;;;;;5092166;28;20039;-61
2022/06/25 00:46:13;;;;;;;71.72;46.58;;;17.20;99.90;;;;;;5091487;28;20047;-63
2022/06/25 00:48:38;;;;;;;62.83;44.58;;;17.40;99.90;;;;;;5091803;28;20058;-62
2022/06/25 00:51:15;;;;;;;65.05;45.10;;;17.50;99.90;;;;;;5092409;28;20044;-62
2022/06/25 00:53:43;;;;;;;64.13;44.63;;;17.00;99.90;;;;;;5091572;28;20044;-62
2022/06/25 00:56:12;;;;;;;68.60;46.95;;;17.20;99.90;;;;;;5091129;28;20043;-62
2022/06/25 00:58:40;;;;;;;63.97;44.45;;;17.20;99.90;;;;;;5091994;28;20071;-63
2022/06/25 01:01:09;;;;;;;61.50;44.60;;;17.30;99.90;;;;;;5091350;28;20175;-62
2022/06/25 01:03:36;;;;;;;62.08;43.58;;;17.20;99.90;;;;;;5091711;28;20048;-61
2022/06/25 01:06:03;;;;;;;56.55;41.75;;;17.10;99.90;;;;;;5091748;28;20040;-62
2022/06/25 01:08:29;;;;;;;59.65;42.25;;;17.00;99.90;;;;;;5091952;28;20048;-63
2022/06/25 01:10:55;;;;;;;61.13;45.28;;;17.20;99.90;;;;;;5091549;28;20512;-62
2022/06/25 01:13:23;;;;;;;58.42;41.47;;;16.70;99.90;;;;;;5091751;28;20127;-62
2022/06/25 01:15:50;;;;;;;54.97;40.72;;;17.00;99.90;;;;;;5091721;28;20101;-64
2022/06/25 01:18:17;;;;;;;52.20;39.30;;;17.10;99.90;;;;;;5091827;28;20117;-62
2022/06/25 01:20:43;;;;;;;53.85;39.53;;;16.90;99.90;;;;;;5091748;28;20071;-61
2022/06/25 01:23:10;;;;;;;57.28;40.97;;;17.00;99.90;;;;;;5091007;28;20052;-62
2022/06/25 01:25:36;;;;;;;54.92;41.00;;;16.80;99.90;;;;;;5091730;28;20044;-62
2022/06/25 01:28:06;;;;;;;53.63;39.50;;;16.70;99.90;;;;;;5091644;28;20376;-62
2022/06/25 01:30:32;;;;;;;52.03;39.20;;;16.60;99.90;;;;;;5091955;28;20048;-62
2022/06/25 01:32:58;;;;;;;51.72;39.80;;;16.80;99.90;;;;;;5091288;28;20141;-61
2022/06/25 01:35:24;;;;;;;;;;;16.80;99.90;;;;;;5091698;28;20114;-62
2022/06/25 01:37:50;;;;;;;53.50;38.10;;;16.70;99.90;;;;;;5091838;28;20466;-62
2022/06/25 01:40:15;;;;;;;;;;;16.80;99.90;;;;;;5092015;28;20044;-63
2022/06/25 01:42:59;;;;;;;49.47;38.72;;;16.50;99.90;;;;;;5091505;28;20283;-63
2022/06/25 01:45:34;;;;;;;50.40;37.55;;;16.70;99.90;;;;;;5091343;28;20047;-62
2022/06/25 01:48:01;;;;;;;50.25;38.67;;;16.80;99.90;;;;;;5091497;28;20036;-61
2022/06/25 01:50:28;;;;;;;51.83;40.10;;;16.80;99.90;;;;;;5094077;28;20514;-62
2022/06/25 01:52:54;;;;;;;51.78;39.55;;;16.70;99.90;;;;;;5095319;28;20493;-63
2022/06/25 01:55:21;;;;;;;59.85;40.60;;;16.70;99.90;;;;;;5093605;28;20178;-62
2022/06/25 01:57:48;;;;;;;53.45;42.50;;;16.80;99.90;;;;;;5077134;28;20052;-63
2022/06/25 02:00:20;;;;;;;53.33;41.08;;;16.60;99.90;;;;;;5095195;28;20055;-62
2022/06/25 02:02:46;;;;;;;57.13;43.13;;;16.30;99.90;;;;;;5095060;28;20040;-62
2022/06/25 02:05:14;;;;;;;56.13;39.60;;;16.80;99.90;;;;;;5095005;28;20763;-62
2022/06/25 02:07:40;;;;;;;57.25;41.15;;;16.70;99.90;;;;;;5094989;28;20044;-62
2022/06/25 02:10:07;;;;;;;51.72;39.70;;;16.90;99.90;;;;;;5094930;28;20067;-62
2022/06/25 02:12:32;;;;;;;54.45;40.40;;;16.40;99.90;;;;;;5094825;28;20055;-62
2022/06/25 02:14:58;;;;;;;;;;;16.60;99.90;;;;;;5095238;28;20048;-61
2022/06/25 02:17:24;;;;;;;53.42;40.13;;;16.60;99.90;;;;;;5094758;28;19989;-63
2022/06/25 02:19:50;;;;;;;55.38;41.00;;;16.70;99.90;;;;;;5094801;28;20036;-61
2022/06/25 02:22:15;;;;;;;;;;;16.50;99.90;;;;;;5095151;28;20048;-62
2022/06/25 02:24:42;;;;;;;56.67;41.47;;;16.20;99.90;;;;;;5094685;28;19924;-62
2022/06/25 02:27:08;;;;;;;55.85;41.47;;;16.40;99.90;;;;;;5094690;28;20716;-62
2022/06/25 02:29:34;;;;;;;;;;;16.50;99.90;;;;;;5095112;28;20135;-62
2022/06/25 02:31:59;;;;;;;52.60;40.60;;;16.60;99.90;;;;;;5094246;28;20006;-62
2022/06/25 02:34:25;;;;;;;;;;;16.50;99.90;;;;;;5094848;28;20048;-62
2022/06/25 02:36:51;;;;;;;58.45;40.67;;;16.70;99.90;;;;;;5093959;28;20280;-61
2022/06/25 02:39:17;;;;;;;;;;;16.60;99.90;;;;;;5094552;28;20071;-61
2022/06/25 02:41:43;;;;;;;53.85;39.90;;;16.40;99.90;;;;;;5094476;28;19926;-61
2022/06/25 02:44:09;;;;;;;;;;;16.50;99.90;;;;;;5094981;28;20611;-61
2022/06/25 02:46:34;;;;;;;48.53;36.45;;;16.30;99.90;;;;;;5094334;28;19928;-63
2022/06/25 02:49:01;;;;;;;49.42;36.05;;;16.60;99.90;;;;;;5094301;28;20048;-62
2022/06/25 02:51:27;;;;;;;45.20;34.47;;;16.30;99.90;;;;;;5094368;28;20082;-61
2022/06/25 02:53:52;;;;;;;;;;;16.00;99.90;;;;;;5094937;28;20098;-61
2022/06/25 02:59:04;;;;;;;38.42;33.15;;;16.60;99.90;;;;;;5094141;28;20063;-61
2022/06/25 03:01:30;;;;;;;;;;;16.30;99.90;;;;;;5093609;28;20677;-61
2022/06/25 03:03:56;;;;;;;40.45;32.60;;;16.30;99.90;;;;;;5094020;28;20019;-62
2022/06/25 03:06:23;;;;;;;41.13;32.65;;;16.40;99.90;;;;;;5092348;28;20476;-61
2022/06/25 03:08:49;;;;;;;47.85;32.92;;;16.30;99.90;;;;;;5092731;28;20480;-61
2022/06/25 03:11:16;;;;;;;44.30;33.45;;;16.40;99.90;;;;;;5093785;28;20127;-62
2022/06/25 03:13:42;;;;;;;45.80;33.47;;;16.40;99.90;;;;;;5093646;28;20043;-62
2022/06/25 03:16:08;;;;;;;;;;;16.30;99.90;;;;;;5094031;28;20411;-61
2022/06/25 03:18:35;;;;;;;41.50;31.55;;;16.30;99.90;;;;;;5093831;28;19920;-61
2022/06/25 03:21:01;;;;;;;45.00;30.67;;;16.30;99.90;;;;;;5093511;28;20696;-62
2022/06/25 03:23:27;;;;;;;;;;;16.30;99.90;;;;;;5093962;28;20219;-62
2022/06/25 03:25:53;;;;;;;40.67;30.10;;;16.10;99.90;;;;;;5093670;28;19920;-61
2022/06/25 03:28:19;;;;;;;37.63;30.48;;;16.20;99.90;;;;;;5093052;28;20495;-61
2022/06/25 03:30:44;;;;;;;;;;;16.30;99.90;;;;;;5093763;28;20048;-61
2022/06/25 03:33:10;;;;;;;36.13;28.55;;;15.90;99.90;;;;;;5093236;28;20061;-62
2022/06/25 03:35:36;;;;;;;;;;;16.20;99.90;;;;;;5093597;28;20149;-61
2022/06/25 03:38:02;;;;;;;34.92;28.42;;;16.10;99.90;;;;;;5092928;28;20275;-61
2022/06/25 03:40:27;;;;;;;;;;;16.10;99.90;;;;;;5093603;28;20188;-62
2022/06/25 03:42:53;;;;;;;36.13;29.02;;;16.50;99.90;;;;;;5093191;28;19920;-61
2022/06/25 03:45:19;;;;;;;;;;;15.80;99.90;;;;;;5093488;28;20051;-62
2022/06/25 03:47:50;;;;;;;41.47;28.33;;;16.10;99.90;;;;;;5091722;28;19953;-61
2022/06/25 03:50:20;;;;;;;40.92;29.25;;;16.00;99.90;;;;;;5093057;28;20113;-62
2022/06/25 03:52:47;;;;;;;36.17;28.75;;;16.00;99.90;;;;;;5092895;28;20063;-62
2022/06/25 03:55:14;;;;;;;38.78;29.38;;;16.20;99.90;;;;;;5091585;28;20044;-62
2022/06/25 03:57:39;;;;;;;36.08;27.48;;;16.20;99.90;;;;;;5092891;28;20388;-61
2022/06/25 04:00:06;;;;;;;;;;;16.50;99.90;;;;;;5093268;28;20059;-63
2022/06/25 04:02:32;;;;;;;33.90;27.40;;;16.50;99.90;;;;;;5092817;28;20420;-60
2022/06/25 04:04:58;;;;;;;37.05;28.25;;;16.40;99.90;;;;;;5092758;28;20089;-61
2022/06/25 04:07:23;;;;;;;;;;;16.10;99.90;;;;;;5093124;28;20047;-61
2022/06/25 04:09:49;;;;;;;33.92;26.27;;;16.30;99.90;;;;;;5092608;28;20078;-61
2022/06/25 04:12:15;;;;;;;;;;;16.30;99.90;;;;;;5092571;28;20048;-62
2022/06/25 04:14:41;;;;;;;34.42;26.67;;;16.10;99.90;;;;;;5092242;28;19930;-61
2022/06/25 04:17:06;;;;;;;;;;;16.20;99.90;;;;;;5093186;28;20133;-60
2022/06/25 04:19:39;;;;;;;32.53;26.35;;;16.50;99.90;;;;;;5092531;28;20261;-61
2022/06/25 04:22:07;;;;;;;33.20;27.00;;;16.40;99.90;;;;;;5092430;28;20044;-60
2022/06/25 04:24:34;;;;;;;36.00;26.77;;;16.50;99.90;;;;;;5092232;28;20044;-61
2022/06/25 04:27:00;;;;;;;35.22;27.73;;;16.30;99.90;;;;;;5092011;28;20048;-62
2022/06/25 04:29:25;;;;;;;;;;;16.30;99.90;;;;;;5092735;28;20047;-62
2022/06/25 04:31:51;;;;;;;32.38;25.58;;;16.50;99.90;;;;;;5092253;28;19920;-62
2022/06/25 04:34:17;;;;;;;;;;;16.30;99.90;;;;;;5092401;28;20048;-62
2022/06/25 04:36:42;;;;;;;30.30;24.70;;;16.70;99.90;;;;;;5092256;28;19927;-61
2022/06/25 04:39:08;;;;;;;;;;;16.70;99.90;;;;;;5092713;28;20052;-61
2022/06/25 04:41:33;;;;;;;28.15;23.42;;;16.70;99.90;;;;;;5090899;28;20363;-61
2022/06/25 04:44:01;;;;;;;;;;;16.70;99.90;;;;;;5092372;28;20357;-61
2022/06/25 04:46:29;;;;;;;31.77;24.05;;;16.70;99.90;;;;;;5091971;28;20440;-62
2022/06/25 04:48:56;;;;;;;27.50;23.58;;;16.80;99.90;;;;;;5092205;28;20044;-62
2022/06/25 04:51:22;;;;;;;30.58;23.08;;;17.00;99.90;;;;;;5092029;28;20123;-62
2022/06/25 04:53:56;;;;;;;;;;;16.60;99.90;;;;;;5092526;28;20126;-61
2022/06/25 04:56:27;;;;;;;29.48;23.85;;;17.20;99.90;;;;;;5091414;28;20357;-62
2022/06/25 04:58:54;;;;;;;25.45;22.73;;;17.10;99.90;;;;;;5091672;28;20081;-61
2022/06/25 05:01:20;;;;;;;27.25;23.05;;;16.90;99.90;;;;;;5091701;28;20040;-60
2022/06/25 05:03:45;;;;;;;;;;;17.30;99.90;;;;;;5092324;28;20500;-61
2022/06/25 05:06:12;;;;;;;25.50;20.75;;;17.30;99.90;;;;;;5091921;28;20352;-61
2022/06/25 05:08:37;;;;;;;25.80;20.73;;;17.20;99.90;;;;;;5091852;28;20449;-62
2022/06/25 05:11:03;;;;;;;;;;;17.20;99.90;;;;;;5092254;28;20122;-60
2022/06/25 05:13:29;;;;;;;24.27;21.33;;;17.30;99.90;;;;;;5091823;28;20275;-60
2022/06/25 05:15:55;;;;;;;29.27;21.40;;;17.30;99.90;;;;;;5091908;28;20050;-60
2022/06/25 05:18:21;;;;;;;;;;;17.30;99.90;;;;;;5091578;28;20044;-61
2022/06/25 05:20:46;;;;;;;29.52;22.35;;;17.50;99.90;;;;;;5091845;28;19924;-62
2022/06/25 05:23:12;;;;;;;25.58;19.55;;;17.50;99.90;;;;;;5091547;28;20047;-61
2022/06/25 05:25:38;;;;;;;;;;;17.80;99.90;;;;;;5094402;28;20495;-63
2022/06/25 05:28:04;;;;;;;26.02;20.85;;;17.50;99.90;;;;;;5095535;28;19927;-61
2022/06/25 05:30:30;;;;;;;23.02;19.85;;;17.50;99.90;;;;;;5095706;28;20451;-61
2022/06/25 05:32:56;;;;;;;26.83;18.83;;;17.50;99.90;;;;;;5094969;28;20143;-61
2022/06/25 05:35:22;;;;;;;22.95;19.80;;;17.80;99.90;;;;;;5095489;28;20515;-61
2022/06/25 05:37:48;;;;;;;;;;;17.70;99.90;;;;;;5096285;28;20044;-61
2022/06/25 05:40:14;;;;;;;21.20;18.90;;;17.90;99.90;;;;;;5095543;28;19928;-63
2022/06/25 05:42:39;;;;;;;19.95;16.38;;;18.10;99.90;;;;;;5095501;28;20087;-61
2022/06/25 05:45:06;;;;;;;19.65;17.42;;;18.10;99.90;;;;;;5095193;28;20392;-62
2022/06/25 05:47:31;;;;;;;22.15;18.05;;;18.30;99.90;;;;;;5095108;28;20098;-61
2022/06/25 05:49:57;;;;;;;;;;;18.20;99.90;;;;;;5096006;28;20094;-61
2022/06/25 05:52:23;;;;;;;29.55;18.35;;;18.40;99.90;;;;;;5094019;28;19920;-61
2022/06/25 05:54:49;;;;;;;21.65;16.67;;;18.70;99.90;;;;;;5094695;28;20043;-60
2022/06/25 05:57:14;;;;;;;21.15;17.08;;;18.50;99.90;;;;;;5094355;28;20051;-61
2022/06/25 05:59:41;;;;;;;22.13;17.23;;;18.60;99.90;;;;;;5094517;28;20105;-63
2022/06/25 06:02:07;;;;;;;19.80;15.85;;;18.60;99.90;;;;;;5094087;28;20101;-61
2022/06/25 06:04:33;;;;;;;24.88;17.50;;;18.40;99.90;;;;;;5094342;28;20044;-61
2022/06/25 06:07:00;;;;;;;20.45;15.75;;;19.00;99.90;;;;;;5093998;28;20499;-61
2022/06/25 06:09:31;;;;;;;18.45;14.85;;;18.80;99.90;;;;;;5094195;28;20101;-62
2022/06/25 06:11:57;;;;;;;20.80;16.42;;;19.00;99.90;;;;;;5094098;28;20052;-61
2022/06/25 06:14:23;;;;;;;20.63;16.13;;;19.10;99.90;;;;;;5093851;28;20700;-61
2022/06/25 06:16:49;;;;;;;17.17;15.50;;;19.10;99.90;;;;;;5094156;28;20036;-61
2022/06/25 06:19:14;;;;;;;16.52;14.60;;;19.10;99.90;;;;;;5086754;28;20051;-68
2022/06/25 06:21:41;;;;;;;17.30;15.05;;;19.20;99.90;;;;;;5092773;28;20052;-61
2022/06/25 06:24:07;;;;;;;19.13;14.43;;;19.50;99.90;;;;;;5092698;28;20079;-61
2022/06/25 06:26:33;;;;;;;17.30;14.30;;;19.30;99.90;;;;;;5092233;28;20121;-63
2022/06/25 06:28:59;;;;;;;16.00;12.80;;;19.50;99.90;;;;;;5091608;28;20044;-64
2022/06/25 06:31:25;;;;;;;14.82;12.65;;;19.60;99.90;;;;;;5092603;28;20044;-62
2022/06/25 06:33:50;;;;;;;18.70;12.77;;;19.80;99.90;;;;;;5091576;28;20522;-66
2022/06/25 06:36:16;;;;;;;17.13;12.30;;;20.00;99.90;;;;;;5091228;28;20055;-61
2022/06/25 06:38:42;;;;;;;13.48;10.80;;;19.90;99.90;;;;;;5090056;28;20407;-62
2022/06/25 06:41:08;;;;;;;16.52;11.90;;;20.30;99.90;;;;;;5092190;28;20047;-62
2022/06/25 06:43:33;;;;;;;14.13;10.85;;;20.30;99.90;;;;;;5092474;28;20483;-64
2022/06/25 06:45:59;;;;;;;14.65;10.70;;;20.10;99.90;;;;;;5092810;28;20480;-61
2022/06/25 06:48:25;;;;;;;14.88;9.75;;;20.20;99.90;;;;;;5091883;28;20492;-62
2022/06/25 06:50:50;;;;;;;16.45;10.40;;;19.90;99.90;;;;;;5091904;28;20391;-62
2022/06/25 06:53:16;;;;;;;15.13;10.07;;;20.00;99.90;;;;;;5092912;28;20043;-61
2022/06/25 06:55:42;;;;;;;12.38;10.15;;;20.50;99.90;;;;;;5092595;28;20434;-62
2022/06/25 06:58:07;;;;;;;13.63;10.13;;;20.50;99.90;;;;;;5091248;28;20052;-62
2022/06/25 07:00:33;;;;;;;14.95;10.02;;;20.50;99.90;;;;;;5092747;28;20048;-62
2022/06/25 07:02:59;;;;;;;11.25;9.48;;;20.30;99.90;;;;;;5092423;28;20105;-61
2022/06/25 07:05:24;;;;;;;22.05;9.07;;;21.00;99.90;;;;;;5091770;28;20067;-63
2022/06/25 07:07:50;;;;;;;13.30;10.40;;;20.70;99.90;;;;;;5091756;28;20044;-62
2022/06/25 07:10:16;;;;;;;11.77;9.32;;;21.00;99.90;;;;;;5091155;28;20125;-61
2022/06/25 07:12:42;;;;;;;14.05;8.90;;;20.40;99.90;;;;;;5091754;28;20048;-61
2022/06/25 07:15:08;;;;;;;13.50;9.82;;;21.00;99.90;;;;;;5091473;28;20048;-61
2022/06/25 07:17:33;;;;;;;10.82;8.90;;;21.00;99.90;;;;;;5089055;28;20069;-61
2022/06/25 07:19:59;;;;;;;13.35;8.70;;;21.20;99.90;;;;;;5090812;28;20047;-68
2022/06/25 07:22:25;;;;;;;11.52;8.60;;;21.10;99.90;;;;;;5092347;28;20044;-61
2022/06/25 07:24:51;;;;;;;12.38;8.50;;;21.40;99.90;;;;;;5092160;28;20083;-64
2022/06/25 07:27:18;;;;;;;11.45;8.55;;;21.50;99.90;;;;;;5089362;28;20382;-61
2022/06/25 07:29:44;;;;;;;11.27;8.18;;;21.40;99.90;;;;;;5082945;28;20729;-63
2022/06/25 07:32:10;;;;;;;10.13;7.40;;;21.40;99.90;;;;;;5090126;28;20508;-61
2022/06/25 07:34:37;;;;;;;11.52;8.15;;;21.40;99.90;;;;;;5091647;28;20043;-63
2022/06/25 07:37:03;;;;;;;9.15;7.82;;;21.70;99.90;;;;;;5090972;28;20048;-62
2022/06/25 07:39:29;;;;;;;12.82;7.75;;;21.60;99.90;;;;;;5092363;28;20051;-61
2022/06/25 07:41:55;;;;;;;12.20;7.13;;;21.90;99.90;;;;;;5093032;28;20048;-62
2022/06/25 07:44:22;;;;;;;9.45;6.10;;;22.20;99.90;;;;;;5093211;28;20127;-61
2022/06/25 07:46:47;;;;;;;11.48;6.03;;;21.40;99.90;;;;;;5092979;28;20040;-62
2022/06/25 07:49:13;;;;;;;8.32;6.10;;;22.20;99.90;;;;;;5093145;28;20052;-62
2022/06/25 07:51:57;;;;;;;9.20;6.38;;;21.90;99.90;;;;;;5093016;28;20048;-62
2022/06/25 07:54:24;;;;;;;10.50;6.22;;;21.70;99.90;;;;;;5093127;28;20089;-62
2022/06/25 07:56:50;;;;;;;9.27;6.88;;;22.20;99.90;;;;;;5092852;28;20051;-62
2022/06/25 07:59:16;;;;;;;8.85;6.93;;;21.70;99.90;;;;;;5092888;28;20535;-61
2022/06/25 08:01:42;;;;;;;8.75;6.47;;;21.70;99.90;;;;;;5092911;28;20170;-61
2022/06/25 08:04:08;;;;;;;8.27;6.78;;;21.90;99.90;;;;;;5092849;28;20130;-63
2022/06/25 08:06:38;;;;;;;10.52;6.93;;;21.80;99.90;;;;;;5092804;28;20480;-63
2022/06/25 08:09:04;;;;;;;7.03;5.82;;;22.40;99.90;;;;;;5092799;28;20040;-63
2022/06/25 08:11:30;;;;;;;9.07;5.82;;;22.40;99.90;;;;;;5088499;28;20114;-68
2022/06/25 08:13:56;;;;;;;10.98;5.90;;;22.50;99.90;;;;;;5088475;28;20087;-62
2022/06/25 08:16:25;;;;;;;9.32;6.78;;;22.40;99.90;;;;;;5091048;28;20094;-61
2022/06/25 08:18:51;;;;;;;7.60;6.20;;;22.70;99.90;;;;;;5090860;28;20046;-62
2022/06/25 08:21:17;;;;;;;8.77;5.95;;;22.70;99.90;;;;;;5089720;28;20722;-61
2022/06/25 08:23:43;;;;;;;8.43;5.47;;;23.00;99.90;;;;;;5088721;28;20117;-62
2022/06/25 08:26:08;;;;;;;6.43;5.35;;;22.80;99.90;;;;;;5090922;28;20048;-66
2022/06/25 08:28:34;;;;;;;7.50;5.82;;;22.50;99.90;;;;;;5090604;28;20055;-62
2022/06/25 08:31:00;;;;;;;9.30;4.72;;;22.90;99.90;;;;;;5091146;28;20056;-64
2022/06/25 08:33:26;;;;;;;8.30;5.32;;;23.00;99.90;;;;;;5091317;28;20040;-62
2022/06/25 08:35:51;;;;;;;7.35;4.68;;;22.90;99.90;;;;;;5089192;28;20052;-61
2022/06/25 08:38:17;;;;;;;7.75;4.05;;;22.90;99.90;;;;;;5090936;28;20073;-61
2022/06/25 08:40:43;;;;;;;11.07;3.67;;;23.10;99.90;;;;;;5091107;28;20078;-61
2022/06/25 08:43:08;;;;;;;6.18;4.10;;;22.60;99.90;;;;;;5089960;28;20146;-61
2022/06/25 08:45:35;;;;;;;7.50;4.40;;;22.30;99.90;;;;;;5089650;28;20044;-63
2022/06/25 08:48:04;;;;;;;7.05;4.57;;;22.10;99.90;;;;;;5089712;28;20048;-61
2022/06/25 08:50:31;;;;;;;7.40;5.25;;;22.30;99.90;;;;;;5090009;28;20113;-62
2022/06/25 08:52:57;;;;;;;8.05;4.57;;;22.40;99.90;;;;;;5090389;28;20512;-61
2022/06/25 08:55:36;;;;;;;6.47;3.63;;;22.60;99.90;;;;;;5089746;28;20048;-64
2022/06/25 08:58:02;;;;;;;7.75;3.63;;;23.20;99.90;;;;;;5089872;28;20051;-62
2022/06/25 09:00:33;;;;;;;7.70;4.60;;;23.10;99.90;;;;;;5090084;28;20105;-63
2022/06/25 09:03:00;;;;;;;6.95;4.72;;;23.30;99.90;;;;;;5090424;28;20052;-62
2022/06/25 09:05:37;;;;;;;6.72;4.85;;;23.40;99.90;;;;;;5088955;28;20407;-64
2022/06/25 09:08:05;;;;;;;7.35;3.70;;;23.40;99.90;;;;;;5087419;28;20052;-62
2022/06/25 09:10:32;;;;;;;7.70;4.10;;;23.50;99.90;;;;;;5088447;28;20059;-63
2022/06/25 09:12:59;;;;;;;8.32;4.03;;;23.40;99.90;;;;;;5089560;28;20406;-62
2022/06/25 09:15:37;;;;;;;6.22;4.05;;;23.60;99.90;;;;;;5089123;28;20472;-61
2022/06/25 09:18:13;;;;;;;8.50;4.07;;;23.90;99.90;;;;;;5085505;28;20076;-67
2022/06/25 09:20:58;;;;;;;;;;;23.80;99.90;;;;;;5090078;28;20064;-62
2022/06/25 09:23:24;;;;;;;7.55;3.90;;;23.40;99.90;;;;;;5089493;28;19986;-61
2022/06/25 09:26:03;;;;;;;5.88;4.07;;;23.60;99.90;;;;;;5088197;28;20092;-63
2022/06/25 09:28:31;;;;;;;7.50;3.67;;;23.60;99.90;;;;;;5089211;28;20133;-62
2022/06/25 09:30:57;;;;;;;4.30;3.40;;;24.10;99.90;;;;;;5090496;28;20083;-62
2022/06/25 09:33:23;;;;;;;6.97;3.85;;;24.30;99.90;;;;;;5090400;28;20083;-67
2022/06/25 09:35:52;;;;;;;7.03;3.42;;;24.40;99.90;;;;;;5090864;28;20480;-62
2022/06/25 09:38:19;;;;;;;6.82;3.30;;;24.70;99.90;;;;;;5090842;28;20056;-62
2022/06/25 09:40:54;;;;;;;9.85;3.78;;;24.70;99.90;;;;;;5090476;28;20056;-63
2022/06/25 09:43:36;;;;;;;8.65;3.67;;;24.70;99.90;;;;;;5091699;28;20403;-61
2022/06/25 09:46:04;;;;;;;6.03;3.00;;;24.80;99.90;;;;;;5091584;28;20044;-61
2022/06/25 09:48:33;;;;;;;4.63;3.25;;;25.10;99.90;;;;;;5091539;28;20044;-62
2022/06/25 09:51:14;;;;;;;6.93;3.53;;;25.30;99.90;;;;;;5091545;28;20084;-62
2022/06/25 09:53:47;;;;;;;9.50;3.60;;;25.30;99.90;;;;;;5091617;28;20051;-62
2022/06/25 09:56:15;;;;;;;10.73;4.00;;;25.40;99.90;;;;;;5091446;28;20660;-62
2022/06/25 09:58:43;;;;;;;6.50;4.00;;;25.50;99.90;;;;;;5091364;28;20495;-62
2022/06/25 10:01:09;;;;;;;6.88;3.40;;;25.30;99.90;;;;;;5091448;28;20051;-63
2022/06/25 10:03:36;;;;;;;6.82;3.65;;;25.10;99.90;;;;;;5091523;28;20087;-63
2022/06/25 10:06:02;;;;;;;5.95;3.13;;;25.60;99.90;;;;;;5091424;28;20097;-62
2022/06/25 10:08:30;;;;;;;5.10;3.20;;;25.80;99.90;;;;;;5091341;28;20476;-62
2022/06/25 10:10:57;;;;;;;6.03;3.45;;;25.80;99.90;;;;;;5091787;28;20058;-62
2022/06/25 10:13:23;;;;;;;5.78;3.70;;;26.10;99.90;;;;;;5094934;28;20040;-62
2022/06/25 10:15:49;;;;;;;8.18;4.57;;;25.80;99.90;;;;;;5094886;28;20086;-61
2022/06/25 10:18:15;;;;;;;9.25;4.57;;;25.90;99.90;;;;;;5095188;28;20162;-63
2022/06/25 10:20:42;;;;;;;6.47;3.90;;;25.50;99.90;;;;;;5094661;28;20131;-61
2022/06/25 10:23:10;;;;;;;6.53;3.60;;;25.60;99.90;;;;;;5093584;28;20083;-62
2022/06/25 10:25:37;;;;;;;5.53;3.00;;;25.90;99.90;;;;;;5094662;28;20483;-62
2022/06/25 10:28:14;;;;;;;5.97;2.92;;;25.70;99.90;;;;;;5094276;28;20502;-64
2022/06/25 10:30:47;;;;;;;5.28;3.33;;;25.80;99.90;;;;;;5091762;28;20089;-60
2022/06/25 10:33:15;;;;;;;9.32;3.13;;;25.50;99.90;;;;;;5094279;28;20044;-61
2022/06/25 10:35:41;;;;;;;5.03;3.13;;;25.30;99.90;;;;;;5094128;28;20055;-62
2022/06/25 10:38:16;;;;;;;10.75;3.40;;;25.20;99.90;;;;;;5094428;28;20171;-62
2022/06/25 10:40:46;;;;;;;5.72;2.90;;;25.40;99.90;;;;;;5094175;28;20048;-62
2022/06/25 10:43:42;;;;;;;6.22;3.03;;;25.60;99.90;;;;;;5094197;28;20067;-60
2022/06/25 10:46:24;;;;;;;4.78;2.75;;;25.70;99.90;;;;;;5093602;28;20084;-63
2022/06/25 10:49:05;;;;;;;5.07;2.65;;;25.50;99.90;;;;;;5093967;28;20434;-62
2022/06/25 10:51:43;;;;;;;4.50;2.60;;;25.10;99.90;;;;;;5094066;28;20056;-63
2022/06/25 10:54:23;;;;;;;8.68;2.25;;;25.40;99.90;;;;;;5093738;28;20040;-63
2022/06/25 10:56:50;;;;;;;5.90;2.55;;;25.50;99.90;;;;;;5093733;28;20040;-62
2022/06/25 10:59:46;;;;;;;4.65;1.98;;;25.80;99.90;;;;;;5093345;28;20529;-62
2022/06/25 11:02:20;;;;;;;7.47;3.13;;;26.20;99.90;;;;;;5092013;28;20063;-68
2022/06/25 11:04:53;;;;;;;4.32;2.50;;;25.90;99.90;;;;;;5093529;28;20052;-64
2022/06/25 11:07:21;;;;;;;3.53;1.80;;;26.50;99.90;;;;;;5092526;28;20811;-64
2022/06/25 11:09:54;;;;;;;3.63;2.47;;;26.10;99.90;;;;;;5093112;28;20059;-66
2022/06/25 11:12:21;;;;;;;2.53;2.03;;;26.60;99.90;;;;;;5090542;28;20050;-62
2022/06/25 11:15:02;;;;;;;4.95;1.98;;;26.60;99.90;;;;;;5091959;28;20036;-63
2022/06/25 11:17:29;;;;;;;4.47;2.38;;;26.30;99.90;;;;;;5087197;28;20040;-62
2022/06/25 11:20:04;;;;;;;5.25;2.45;;;25.70;99.90;;;;;;5091661;28;20420;-61
2022/06/25 11:22:30;;;;;;;5.18;3.25;;;25.50;99.90;;;;;;5091056;28;20542;-62
2022/06/25 11:30:27;;;;;;;3.63;2.45;;;24.70;99.90;;;;;;5070988;28;20143;-63
2022/06/25 11:32:53;;;;;;;7.60;2.50;;;24.30;99.90;;;;;;5072553;28;20408;-62
2022/06/25 11:35:19;;;;;;;5.15;2.33;;;24.90;99.90;;;;;;5072649;28;20057;-62
2022/06/25 11:37:45;;;;;;;5.78;2.47;;;25.00;99.90;;;;;;5072695;28;20044;-62
2022/06/25 11:40:17;;;;;;;4.53;2.60;;;25.50;99.90;;;;;;5072471;28;20135;-62
2022/06/25 11:42:43;;;;;;;5.50;3.20;;;24.70;99.90;;;;;;5072574;28;20041;-62
2022/06/25 11:45:10;;;;;;;4.53;2.85;;;24.60;99.90;;;;;;5072212;28;20101;-63
2022/06/25 11:47:37;;;;;;;4.25;2.50;;;24.40;99.90;;;;;;5072267;28;20083;-63
2022/06/25 11:50:10;;;;;;;9.23;2.50;;;24.10;99.90;;;;;;5072596;28;20048;-62
2022/06/25 11:52:42;;;;;;;5.45;2.55;;;23.70;99.90;;;;;;5072614;28;20101;-62
2022/06/25 11:55:09;;;;;;;6.50;2.40;;;23.60;99.90;;;;;;5072280;28;20040;-62
2022/06/25 11:57:43;;;;;;;7.78;2.92;;;23.60;99.90;;;;;;5072352;28;20057;-64
2022/06/25 12:00:13;;;;;;;5.95;2.47;;;23.50;99.90;;;;;;5082849;28;20085;-60
2022/06/25 12:02:43;;;;;;;5.18;2.50;;;23.00;99.90;;;;;;5092445;28;20044;-63
2022/06/25 12:05:10;;;;;;;7.78;3.00;;;22.80;99.90;;;;;;5091307;28;20184;-63
2022/06/25 12:07:36;;;;;;;7.07;2.92;;;22.80;99.90;;;;;;5092454;28;20040;-63
2022/06/25 12:10:11;;;;;;;6.45;2.90;;;22.80;99.90;;;;;;5092111;28;20495;-64
2022/06/25 12:12:38;;;;;;;7.47;2.88;;;23.00;99.90;;;;;;5092396;28;20048;-63
2022/06/25 12:15:04;;;;;;;10.38;3.47;;;23.20;99.90;;;;;;5092272;28;20052;-62
2022/06/25 12:17:38;;;;;;;7.10;3.45;;;23.10;99.90;;;;;;5092201;28;20127;-63
2022/06/25 12:20:09;;;;;;;9.02;2.83;;;23.50;99.90;;;;;;5092471;28;20044;-62
2022/06/25 12:22:40;;;;;;;6.65;3.08;;;23.60;99.90;;;;;;5092412;28;20043;-62
2022/06/25 12:25:07;;;;;;;6.22;2.80;;;23.20;99.90;;;;;;5092129;28;20047;-62
2022/06/25 12:27:47;;;;;;;4.30;2.75;;;23.20;99.90;;;;;;5092568;28;20075;-62
2022/06/25 12:30:19;;;;;;;6.72;3.03;;;23.20;99.90;;;;;;5092490;28;20075;-63
2022/06/25 12:32:44;;;;;;;10.98;3.50;;;22.80;99.90;;;;;;5092244;28;20044;-63
2022/06/25 12:35:21;;;;;;;7.50;2.90;;;22.30;99.90;;;;;;5091261;28;20070;-63
2022/06/25 12:38:03;;;;;;;9.65;2.88;;;22.60;99.90;;;;;;5090381;28;20059;-66
2022/06/25 12:40:40;;;;;;;9.25;2.90;;;22.20;99.90;;;;;;5091935;28;20488;-63
2022/06/25 12:43:07;;;;;;;6.78;2.92;;;22.30;99.90;;;;;;5092058;28;20044;-63
2022/06/25 12:45:34;;;;;;;6.68;3.08;;;21.80;99.90;;;;;;5073741;28;20154;-63
2022/06/25 12:48:01;;;;;;;6.65;3.03;;;21.80;99.90;;;;;;5091527;28;20073;-64
2022/06/25 12:50:29;;;;;;;8.55;3.00;;;21.60;99.90;;;;;;5091159;28;20054;-62
2022/06/25 12:52:56;;;;;;;6.55;3.63;;;21.80;99.90;;;;;;5092056;28;20402;-63
2022/06/25 12:55:24;;;;;;;5.68;3.05;;;21.60;99.90;;;;;;5091344;28;20083;-62
2022/06/25 12:57:50;;;;;;;6.05;3.25;;;21.30;99.90;;;;;;5091975;28;20044;-63
2022/06/25 13:00:26;;;;;;;10.48;3.58;;;21.30;99.90;;;;;;5091749;28;20048;-63
2022/06/25 13:02:52;;;;;;;8.52;4.13;;;21.00;99.90;;;;;;5092009;28;20040;-62